sensor_id;sensor_type;location;lat;lon;timestamp;temperature;humidity
7720;DHT22;3902;49.474;8.616;2023-03-19T00:01:05;13.00;99.90
7720;DHT22;3902;49.474;8.616;2023-03-19T00:03:31;13.00;99.90
7720;DHT22;3902;49.474;8.616;2023-03-19T00:05:57;13.00;99.90
7720;DHT22;3902;49.474;8.616;2023-03-19T00:08:23;13.00;99.90
7720;DHT22;3902;49.474;8.616;2023-03-19T00:10:49;13.10;99.90
7720;DHT22;3902;49.474;8.616;2023-03-19T00:13:15;13.10;99.90
7720;DHT22;3902;49.474;8.616;2023-03-19T00:15:41;13.10;99.90
7720;DHT22;3902;49.474;8.616;2023-03-19T00:18:06;13.10;99.90
7720;DHT22;3902;49.474;8.616;2023-03-19T00:20:32;13.10;99.90
7720;DHT22;3902;49.474;8.616;2023-03-19T00:22:58;13.20;99.90
7720;DHT22;3902;49.474;8.616;2023-03-19T00:25:23;13.10;99.90
7720;DHT22;3902;49.474;8.616;2023-03-19T00:27:49;13.10;99.90
7720;DHT22;3902;49.474;8.616;2023-03-19T00:30:15;13.20;99.90
7720;DHT22;3902;49.474;8.616;2023-03-19T00:32:40;13.20;99.90
7720;DHT22;3902;49.474;8.616;2023-03-19T00:35:06;13.20;99.90
7720;DHT22;3902;49.474;8.616;2023-03-19T00:37:33;13.10;99.90
7720;DHT22;3902;49.474;8.616;2023-03-19T00:40:00;13.10;99.90
7720;DHT22;3902;49.474;8.616;2023-03-19T00:42:26;13.20;99.90
7720;DHT22;3902;49.474;8.616;2023-03-19T00:44:51;13.20;99.90
7720;DHT22;3902;49.474;8.616;2023-03-19T00:47:17;13.20;99.90
7720;DHT22;3902;49.474;8.616;2023-03-19T00:49:43;13.30;99.90
7720;DHT22;3902;49.474;8.616;2023-03-19T00:52:08;13.30;99.90
7720;DHT22;3902;49.474;8.616;2023-03-19T00:54:34;13.30;99.90
7720;DHT22;3902;49.474;8.616;2023-03-19T00:56:59;13.30;99.90
7720;DHT22;3902;49.474;8.616;2023-03-19T00:59:25;13.40;99.90
7720;DHT22;3902;49.474;8.616;2023-03-19T01:01:51;13.30;99.90
7720;DHT22;3902;49.474;8.616;2023-03-19T01:04:17;13.40;99.90
7720;DHT22;3902;49.474;8.616;2023-03-19T01:06:43;13.40;99.90
7720;DHT22;3902;49.474;8.616;2023-03-19T01:09:09;13.40;99.90
7720;DHT22;3902;49.474;8.616;2023-03-19T01:11:35;13.30;99.90
7720;DHT22;3902;49.474;8.616;2023-03-19T01:14:01;13.30;99.90
7720;DHT22;3902;49.474;8.616;2023-03-19T01:16:27;13.30;99.90
7720;DHT22;3902;49.474;8.616;2023-03-19T01:18:53;13.20;99.90
7720;DHT22;3902;49.474;8.616;2023-03-19T01:21:19;13.00;99.90
7720;DHT22;3902;49.474;8.616;2023-03-19T01:23:46;13.00;99.90
7720;DHT22;3902;49.474;8.616;2023-03-19T01:26:11;12.90;99.90
7720;DHT22;3902;49.474;8.616;2023-03-19T01:28:38;12.90;99.90
7720;DHT22;3902;49.474;8.616;2023-03-19T01:31:07;12.80;99.90
7720;DHT22;3902;49.474;8.616;2023-03-19T01:33:33;12.80;99.90
7720;DHT22;3902;49.474;8.616;2023-03-19T01:35:59;12.80;99.90
7720;DHT22;3902;49.474;8.616;2023-03-19T01:38:28;12.70;99.90
7720;DHT22;3902;49.474;8.616;2023-03-19T01:40:53;12.70;99.90
7720;DHT22;3902;49.474;8.616;2023-03-19T01:43:22;12.70;99.90
7720;DHT22;3902;49.474;8.616;2023-03-19T01:46:06;12.70;99.90
7720;DHT22;3902;49.474;8.616;2023-03-19T01:48:42;12.80;99.90
7720;DHT22;3902;49.474;8.616;2023-03-19T01:51:11;12.80;99.90
7720;DHT22;3902;49.474;8.616;2023-03-19T01:53:39;12.80;99.90
7720;DHT22;3902;49.474;8.616;2023-03-19T01:56:13;12.80;99.90
7720;DHT22;3902;49.474;8.616;2023-03-19T01:58:40;12.70;99.90
7720;DHT22;3902;49.474;8.616;2023-03-19T02:01:07;12.70;99.90
7720;DHT22;3902;49.474;8.616;2023-03-19T02:03:34;12.80;99.90
7720;DHT22;3902;49.474;8.616;2023-03-19T02:06:01;12.70;99.90
7720;DHT22;3902;49.474;8.616;2023-03-19T02:08:27;12.70;99.90
7720;DHT22;3902;49.474;8.616;2023-03-19T02:10:54;12.70;99.90
7720;DHT22;3902;49.474;8.616;2023-03-19T02:13:21;12.70;99.90
7720;DHT22;3902;49.474;8.616;2023-03-19T02:15:48;12.60;99.90
7720;DHT22;3902;49.474;8.616;2023-03-19T02:18:14;12.60;99.90
7720;DHT22;3902;49.474;8.616;2023-03-19T02:20:43;12.60;99.90
7720;DHT22;3902;49.474;8.616;2023-03-19T02:28:12;12.50;99.90
7720;DHT22;3902;49.474;8.616;2023-03-19T02:30:39;12.40;99.90
7720;DHT22;3902;49.474;8.616;2023-03-19T02:33:05;12.40;99.90
7720;DHT22;3902;49.474;8.616;2023-03-19T02:35:33;12.40;99.90
7720;DHT22;3902;49.474;8.616;2023-03-19T02:38:00;12.40;99.90
7720;DHT22;3902;49.474;8.616;2023-03-19T02:40:35;12.40;99.90
7720;DHT22;3902;49.474;8.616;2023-03-19T02:43:01;12.40;99.90
7720;DHT22;3902;49.474;8.616;2023-03-19T02:45:28;12.40;99.90
7720;DHT22;3902;49.474;8.616;2023-03-19T02:47:54;12.40;99.90
7720;DHT22;3902;49.474;8.616;2023-03-19T02:50:20;12.40;99.90
7720;DHT22;3902;49.474;8.616;2023-03-19T02:52:46;12.40;99.90
7720;DHT22;3902;49.474;8.616;2023-03-19T02:55:11;12.40;99.90
7720;DHT22;3902;49.474;8.616;2023-03-19T02:57:37;12.40;99.90
7720;DHT22;3902;49.474;8.616;2023-03-19T03:00:04;12.40;99.90
7720;DHT22;3902;49.474;8.616;2023-03-19T03:02:31;12.50;99.90
7720;DHT22;3902;49.474;8.616;2023-03-19T03:04:56;12.50;99.90
7720;DHT22;3902;49.474;8.616;2023-03-19T03:07:22;12.50;99.90
7720;DHT22;3902;49.474;8.616;2023-03-19T03:09:47;12.50;99.90
7720;DHT22;3902;49.474;8.616;2023-03-19T03:12:13;12.50;99.90
7720;DHT22;3902;49.474;8.616;2023-03-19T03:14:39;12.60;99.90
7720;DHT22;3902;49.474;8.616;2023-03-19T03:17:05;12.60;99.90
7720;DHT22;3902;49.474;8.616;2023-03-19T03:19:33;12.60;99.90
7720;DHT22;3902;49.474;8.616;2023-03-19T03:21:58;12.60;99.90
7720;DHT22;3902;49.474;8.616;2023-03-19T03:24:25;12.60;99.90
7720;DHT22;3902;49.474;8.616;2023-03-19T03:26:51;12.60;99.90
7720;DHT22;3902;49.474;8.616;2023-03-19T03:29:18;12.60;99.90
7720;DHT22;3902;49.474;8.616;2023-03-19T03:31:43;12.60;99.90
7720;DHT22;3902;49.474;8.616;2023-03-19T03:34:09;12.60;99.90
7720;DHT22;3902;49.474;8.616;2023-03-19T03:36:34;12.60;99.90
7720;DHT22;3902;49.474;8.616;2023-03-19T03:39:01;12.60;99.90
7720;DHT22;3902;49.474;8.616;2023-03-19T03:41:26;12.60;99.90
7720;DHT22;3902;49.474;8.616;2023-03-19T03:43:52;12.60;99.90
7720;DHT22;3902;49.474;8.616;2023-03-19T03:46:17;12.60;99.90
7720;DHT22;3902;49.474;8.616;2023-03-19T03:48:43;12.60;99.90
7720;DHT22;3902;49.474;8.616;2023-03-19T03:51:09;12.60;99.90
7720;DHT22;3902;49.474;8.616;2023-03-19T03:53:34;12.60;99.90
7720;DHT22;3902;49.474;8.616;2023-03-19T03:56:00;12.60;99.90
7720;DHT22;3902;49.474;8.616;2023-03-19T03:58:25;12.60;99.90
7720;DHT22;3902;49.474;8.616;2023-03-19T04:00:51;12.60;99.90
7720;DHT22;3902;49.474;8.616;2023-03-19T04:03:17;12.70;99.90
7720;DHT22;3902;49.474;8.616;2023-03-19T04:05:43;12.60;99.90
7720;DHT22;3902;49.474;8.616;2023-03-19T04:08:09;12.60;99.90
7720;DHT22;3902;49.474;8.616;2023-03-19T04:10:37;12.60;99.90
7720;DHT22;3902;49.474;8.616;2023-03-19T04:13:03;12.70;99.90
7720;DHT22;3902;49.474;8.616;2023-03-19T04:15:28;12.60;99.90
7720;DHT22;3902;49.474;8.616;2023-03-19T04:17:54;12.70;99.90
7720;DHT22;3902;49.474;8.616;2023-03-19T04:20:20;12.60;99.90
7720;DHT22;3902;49.474;8.616;2023-03-19T04:22:47;12.70;99.90
7720;DHT22;3902;49.474;8.616;2023-03-19T04:25:13;12.70;99.90
7720;DHT22;3902;49.474;8.616;2023-03-19T04:27:38;12.60;99.90
7720;DHT22;3902;49.474;8.616;2023-03-19T04:30:04;12.60;99.90
7720;DHT22;3902;49.474;8.616;2023-03-19T04:32:30;12.60;99.90
7720;DHT22;3902;49.474;8.616;2023-03-19T04:34:55;12.60;99.90
7720;DHT22;3902;49.474;8.616;2023-03-19T04:37:22;12.70;99.90
7720;DHT22;3902;49.474;8.616;2023-03-19T04:39:48;12.60;99.90
7720;DHT22;3902;49.474;8.616;2023-03-19T04:42:13;12.50;99.90
7720;DHT22;3902;49.474;8.616;2023-03-19T04:44:39;12.60;99.90
7720;DHT22;3902;49.474;8.616;2023-03-19T04:47:05;12.50;99.90
7720;DHT22;3902;49.474;8.616;2023-03-19T04:49:30;12.60;99.90
7720;DHT22;3902;49.474;8.616;2023-03-19T04:51:56;12.60;99.90
7720;DHT22;3902;49.474;8.616;2023-03-19T04:54:23;12.60;99.90
7720;DHT22;3902;49.474;8.616;2023-03-19T04:56:49;12.60;99.90
7720;DHT22;3902;49.474;8.616;2023-03-19T04:59:14;12.60;99.90
7720;DHT22;3902;49.474;8.616;2023-03-19T05:01:40;12.60;99.90
7720;DHT22;3902;49.474;8.616;2023-03-19T05:04:05;12.60;99.90
7720;DHT22;3902;49.474;8.616;2023-03-19T05:06:31;12.60;99.90
7720;DHT22;3902;49.474;8.616;2023-03-19T05:08:57;12.60;99.90
7720;DHT22;3902;49.474;8.616;2023-03-19T05:11:22;12.60;99.90
7720;DHT22;3902;49.474;8.616;2023-03-19T05:13:48;12.60;99.90
7720;DHT22;3902;49.474;8.616;2023-03-19T05:16:14;12.60;99.90
7720;DHT22;3902;49.474;8.616;2023-03-19T05:18:40;12.60;99.90
7720;DHT22;3902;49.474;8.616;2023-03-19T05:21:05;12.60;99.90
7720;DHT22;3902;49.474;8.616;2023-03-19T05:23:34;12.60;99.90
7720;DHT22;3902;49.474;8.616;2023-03-19T05:26:00;12.60;99.90
7720;DHT22;3902;49.474;8.616;2023-03-19T05:28:26;12.50;99.90
7720;DHT22;3902;49.474;8.616;2023-03-19T05:30:51;12.50;99.90
7720;DHT22;3902;49.474;8.616;2023-03-19T05:33:17;12.50;99.90
7720;DHT22;3902;49.474;8.616;2023-03-19T05:35:42;12.50;99.90
7720;DHT22;3902;49.474;8.616;2023-03-19T05:38:08;12.60;99.90
7720;DHT22;3902;49.474;8.616;2023-03-19T05:40:35;12.60;99.90
7720;DHT22;3902;49.474;8.616;2023-03-19T05:43:01;12.60;99.90
7720;DHT22;3902;49.474;8.616;2023-03-19T05:45:26;12.60;99.90
7720;DHT22;3902;49.474;8.616;2023-03-19T05:47:52;12.60;99.90
7720;DHT22;3902;49.474;8.616;2023-03-19T05:50:18;12.50;99.90
7720;DHT22;3902;49.474;8.616;2023-03-19T05:52:43;12.50;99.90
7720;DHT22;3902;49.474;8.616;2023-03-19T05:55:09;12.60;99.90
7720;DHT22;3902;49.474;8.616;2023-03-19T05:57:35;12.60;99.90
7720;DHT22;3902;49.474;8.616;2023-03-19T06:00:01;12.60;99.90
7720;DHT22;3902;49.474;8.616;2023-03-19T06:02:26;12.50;99.90
7720;DHT22;3902;49.474;8.616;2023-03-19T06:04:52;12.50;99.90
7720;DHT22;3902;49.474;8.616;2023-03-19T06:07:17;12.60;99.90
7720;DHT22;3902;49.474;8.616;2023-03-19T06:09:43;12.60;99.90
7720;DHT22;3902;49.474;8.616;2023-03-19T06:12:08;12.60;99.90
7720;DHT22;3902;49.474;8.616;2023-03-19T06:14:34;12.50;99.90
7720;DHT22;3902;49.474;8.616;2023-03-19T06:17:00;12.60;99.90
7720;DHT22;3902;49.474;8.616;2023-03-19T06:19:25;12.50;99.90
7720;DHT22;3902;49.474;8.616;2023-03-19T06:21:51;12.60;99.90
7720;DHT22;3902;49.474;8.616;2023-03-19T06:24:17;12.60;99.90
7720;DHT22;3902;49.474;8.616;2023-03-19T06:26:43;12.60;99.90
7720;DHT22;3902;49.474;8.616;2023-03-19T06:29:08;12.60;99.90
7720;DHT22;3902;49.474;8.616;2023-03-19T06:31:34;12.60;99.90
7720;DHT22;3902;49.474;8.616;2023-03-19T06:34:00;12.60;99.90
7720;DHT22;3902;49.474;8.616;2023-03-19T06:36:26;12.60;99.90
7720;DHT22;3902;49.474;8.616;2023-03-19T06:38:51;12.60;99.90
7720;DHT22;3902;49.474;8.616;2023-03-19T06:41:17;12.60;99.90
7720;DHT22;3902;49.474;8.616;2023-03-19T06:43:42;12.60;99.90
7720;DHT22;3902;49.474;8.616;2023-03-19T06:46:08;12.70;99.90
7720;DHT22;3902;49.474;8.616;2023-03-19T06:48:35;12.70;99.90
7720;DHT22;3902;49.474;8.616;2023-03-19T06:51:00;12.70;99.90
7720;DHT22;3902;49.474;8.616;2023-03-19T06:53:27;12.70;99.90
7720;DHT22;3902;49.474;8.616;2023-03-19T06:55:53;12.70;99.90
7720;DHT22;3902;49.474;8.616;2023-03-19T06:58:18;12.70;99.90
7720;DHT22;3902;49.474;8.616;2023-03-19T07:00:45;12.80;99.90
7720;DHT22;3902;49.474;8.616;2023-03-19T07:03:10;12.80;99.90
7720;DHT22;3902;49.474;8.616;2023-03-19T07:05:36;12.80;99.90
7720;DHT22;3902;49.474;8.616;2023-03-19T07:08:02;12.80;99.90
7720;DHT22;3902;49.474;8.616;2023-03-19T07:10:27;12.80;99.90
7720;DHT22;3902;49.474;8.616;2023-03-19T07:12:53;12.90;99.90
7720;DHT22;3902;49.474;8.616;2023-03-19T07:15:18;12.90;99.90
7720;DHT22;3902;49.474;8.616;2023-03-19T07:17:46;12.90;99.90
7720;DHT22;3902;49.474;8.616;2023-03-19T07:20:12;12.90;99.90
7720;DHT22;3902;49.474;8.616;2023-03-19T07:22:38;12.90;99.90
7720;DHT22;3902;49.474;8.616;2023-03-19T07:25:03;12.90;99.90
7720;DHT22;3902;49.474;8.616;2023-03-19T07:27:29;12.90;99.90
7720;DHT22;3902;49.474;8.616;2023-03-19T07:29:55;13.00;99.90
7720;DHT22;3902;49.474;8.616;2023-03-19T07:32:21;13.00;99.90
7720;DHT22;3902;49.474;8.616;2023-03-19T07:34:47;13.10;99.90
7720;DHT22;3902;49.474;8.616;2023-03-19T07:37:13;13.10;99.90
7720;DHT22;3902;49.474;8.616;2023-03-19T07:39:38;13.20;99.90
7720;DHT22;3902;49.474;8.616;2023-03-19T07:42:04;13.20;99.90
7720;DHT22;3902;49.474;8.616;2023-03-19T07:44:30;13.20;99.90
7720;DHT22;3902;49.474;8.616;2023-03-19T07:46:56;13.30;99.90
7720;DHT22;3902;49.474;8.616;2023-03-19T07:49:22;13.30;99.90
7720;DHT22;3902;49.474;8.616;2023-03-19T07:51:47;13.40;99.90
7720;DHT22;3902;49.474;8.616;2023-03-19T07:54:13;13.30;99.90
7720;DHT22;3902;49.474;8.616;2023-03-19T07:56:38;13.40;99.90
7720;DHT22;3902;49.474;8.616;2023-03-19T07:59:04;13.30;99.90
7720;DHT22;3902;49.474;8.616;2023-03-19T08:01:30;13.40;99.90
7720;DHT22;3902;49.474;8.616;2023-03-19T08:03:56;13.30;99.90
7720;DHT22;3902;49.474;8.616;2023-03-19T08:06:21;13.30;99.90
7720;DHT22;3902;49.474;8.616;2023-03-19T08:08:48;13.40;99.90
7720;DHT22;3902;49.474;8.616;2023-03-19T08:11:14;13.50;99.90
7720;DHT22;3902;49.474;8.616;2023-03-19T08:13:39;13.50;99.90
7720;DHT22;3902;49.474;8.616;2023-03-19T08:16:05;13.60;99.90
7720;DHT22;3902;49.474;8.616;2023-03-19T08:18:31;13.70;99.90
7720;DHT22;3902;49.474;8.616;2023-03-19T08:20:56;13.80;99.90
7720;DHT22;3902;49.474;8.616;2023-03-19T08:23:22;13.90;99.90
7720;DHT22;3902;49.474;8.616;2023-03-19T08:25:48;14.00;99.90
7720;DHT22;3902;49.474;8.616;2023-03-19T08:28:16;14.10;99.90
7720;DHT22;3902;49.474;8.616;2023-03-19T08:30:41;14.10;99.90
7720;DHT22;3902;49.474;8.616;2023-03-19T08:33:07;14.20;99.90
7720;DHT22;3902;49.474;8.616;2023-03-19T08:35:33;14.20;99.90
7720;DHT22;3902;49.474;8.616;2023-03-19T08:37:58;14.30;99.90
7720;DHT22;3902;49.474;8.616;2023-03-19T08:40:24;14.40;99.90
7720;DHT22;3902;49.474;8.616;2023-03-19T08:42:49;14.50;99.90
7720;DHT22;3902;49.474;8.616;2023-03-19T08:45:15;14.60;99.90
7720;DHT22;3902;49.474;8.616;2023-03-19T08:47:42;14.70;99.90
7720;DHT22;3902;49.474;8.616;2023-03-19T08:50:09;14.80;99.90
7720;DHT22;3902;49.474;8.616;2023-03-19T08:52:35;14.90;99.90
7720;DHT22;3902;49.474;8.616;2023-03-19T08:55:00;14.90;99.90
7720;DHT22;3902;49.474;8.616;2023-03-19T08:57:26;15.00;99.90
7720;DHT22;3902;49.474;8.616;2023-03-19T08:59:52;15.00;99.90
7720;DHT22;3902;49.474;8.616;2023-03-19T09:02:17;15.10;99.90
7720;DHT22;3902;49.474;8.616;2023-03-19T09:04:43;15.20;99.90
7720;DHT22;3902;49.474;8.616;2023-03-19T09:07:09;15.30;99.90
7720;DHT22;3902;49.474;8.616;2023-03-19T09:09:38;15.40;99.90
7720;DHT22;3902;49.474;8.616;2023-03-19T09:12:04;15.50;99.90
7720;DHT22;3902;49.474;8.616;2023-03-19T09:14:32;15.50;99.90
7720;DHT22;3902;49.474;8.616;2023-03-19T09:16:57;15.70;99.90
7720;DHT22;3902;49.474;8.616;2023-03-19T09:19:23;15.70;99.90
7720;DHT22;3902;49.474;8.616;2023-03-19T09:21:49;15.80;99.90
7720;DHT22;3902;49.474;8.616;2023-03-19T09:24:15;15.90;99.90
7720;DHT22;3902;49.474;8.616;2023-03-19T09:26:40;16.00;99.90
7720;DHT22;3902;49.474;8.616;2023-03-19T09:29:06;16.10;99.90
7720;DHT22;3902;49.474;8.616;2023-03-19T09:31:32;16.10;99.90
7720;DHT22;3902;49.474;8.616;2023-03-19T09:33:57;16.20;99.90
7720;DHT22;3902;49.474;8.616;2023-03-19T09:36:23;16.20;99.90
7720;DHT22;3902;49.474;8.616;2023-03-19T09:38:49;16.20;99.90
7720;DHT22;3902;49.474;8.616;2023-03-19T09:44:19;16.30;99.90
7720;DHT22;3902;49.474;8.616;2023-03-19T09:46:58;16.40;99.90
7720;DHT22;3902;49.474;8.616;2023-03-19T09:49:29;16.40;99.90
7720;DHT22;3902;49.474;8.616;2023-03-19T09:54:48;16.30;99.90
7720;DHT22;3902;49.474;8.616;2023-03-19T09:57:17;16.40;99.90
7720;DHT22;3902;49.474;8.616;2023-03-19T09:59:43;16.30;99.90
7720;DHT22;3902;49.474;8.616;2023-03-19T10:02:39;16.30;99.90
7720;DHT22;3902;49.474;8.616;2023-03-19T10:13:41;16.30;99.90
7720;DHT22;3902;49.474;8.616;2023-03-19T10:16:25;16.30;99.90
7720;DHT22;3902;49.474;8.616;2023-03-19T10:18:54;16.40;99.90
7720;DHT22;3902;49.474;8.616;2023-03-19T10:21:32;16.40;99.90
7720;DHT22;3902;49.474;8.616;2023-03-19T10:24:13;16.40;99.90
7720;DHT22;3902;49.474;8.616;2023-03-19T10:26:40;16.30;99.90
7720;DHT22;3902;49.474;8.616;2023-03-19T10:29:19;16.30;99.90
7720;DHT22;3902;49.474;8.616;2023-03-19T10:34:38;16.30;99.90
7720;DHT22;3902;49.474;8.616;2023-03-19T10:37:12;16.30;99.90
7720;DHT22;3902;49.474;8.616;2023-03-19T10:39:41;16.40;99.90
7720;DHT22;3902;49.474;8.616;2023-03-19T10:42:09;16.40;99.90
7720;DHT22;3902;49.474;8.616;2023-03-19T10:44:48;16.50;99.90
7720;DHT22;3902;49.474;8.616;2023-03-19T10:47:16;16.60;99.90
7720;DHT22;3902;49.474;8.616;2023-03-19T10:49:44;16.70;99.90
7720;DHT22;3902;49.474;8.616;2023-03-19T10:52:23;16.70;99.90
7720;DHT22;3902;49.474;8.616;2023-03-19T10:55:22;16.80;99.90
7720;DHT22;3902;49.474;8.616;2023-03-19T10:57:49;16.80;99.90
7720;DHT22;3902;49.474;8.616;2023-03-19T11:00:23;16.80;99.90
7720;DHT22;3902;49.474;8.616;2023-03-19T11:02:51;17.00;99.90
7720;DHT22;3902;49.474;8.616;2023-03-19T11:05:23;17.30;99.90
7720;DHT22;3902;49.474;8.616;2023-03-19T11:07:50;17.80;99.90
7720;DHT22;3902;49.474;8.616;2023-03-19T11:10:19;18.30;99.90
7720;DHT22;3902;49.474;8.616;2023-03-19T11:12:55;18.90;99.90
7720;DHT22;3902;49.474;8.616;2023-03-19T11:15:27;19.60;99.60
7720;DHT22;3902;49.474;8.616;2023-03-19T11:18:04;20.30;98.20
7720;DHT22;3902;49.474;8.616;2023-03-19T11:20:36;21.00;97.70
7720;DHT22;3902;49.474;8.616;2023-03-19T11:23:06;21.60;97.50
7720;DHT22;3902;49.474;8.616;2023-03-19T11:25:39;22.30;96.50
7720;DHT22;3902;49.474;8.616;2023-03-19T11:36:11;21.60;93.40
7720;DHT22;3902;49.474;8.616;2023-03-19T11:38:47;21.10;93.90
7720;DHT22;3902;49.474;8.616;2023-03-19T11:41:52;20.30;93.80
7720;DHT22;3902;49.474;8.616;2023-03-19T11:44:30;19.80;94.60
7720;DHT22;3902;49.474;8.616;2023-03-19T11:47:11;19.40;94.60
7720;DHT22;3902;49.474;8.616;2023-03-19T11:52:52;18.80;94.70
7720;DHT22;3902;49.474;8.616;2023-03-19T11:55:34;18.50;95.10
7720;DHT22;3902;49.474;8.616;2023-03-19T12:00:49;17.90;96.10
7720;DHT22;3902;49.474;8.616;2023-03-19T12:08:57;17.70;96.40
7720;DHT22;3902;49.474;8.616;2023-03-19T12:14:10;17.50;96.80
7720;DHT22;3902;49.474;8.616;2023-03-19T12:19:25;17.20;96.80
7720;DHT22;3902;49.474;8.616;2023-03-19T12:25:19;17.20;97.40
7720;DHT22;3902;49.474;8.616;2023-03-19T12:33:10;17.00;98.10
7720;DHT22;3902;49.474;8.616;2023-03-19T12:35:40;17.10;98.00
7720;DHT22;3902;49.474;8.616;2023-03-19T12:38:23;17.00;98.20
7720;DHT22;3902;49.474;8.616;2023-03-19T12:41:05;16.90;98.50
7720;DHT22;3902;49.474;8.616;2023-03-19T12:47:11;16.90;99.20
7720;DHT22;3902;49.474;8.616;2023-03-19T12:49:50;16.80;99.60
7720;DHT22;3902;49.474;8.616;2023-03-19T12:52:25;16.80;99.90
7720;DHT22;3902;49.474;8.616;2023-03-19T12:55:03;16.90;99.90
7720;DHT22;3902;49.474;8.616;2023-03-19T13:00:09;16.90;99.90
7720;DHT22;3902;49.474;8.616;2023-03-19T13:05:21;16.80;99.90
7720;DHT22;3902;49.474;8.616;2023-03-19T13:10:44;16.80;99.90
7720;DHT22;3902;49.474;8.616;2023-03-19T13:13:24;16.70;99.80
7720;DHT22;3902;49.474;8.616;2023-03-19T13:15:55;16.70;99.90
7720;DHT22;3902;49.474;8.616;2023-03-19T13:18:34;16.60;99.90
7720;DHT22;3902;49.474;8.616;2023-03-19T13:21:29;16.60;99.90
7720;DHT22;3902;49.474;8.616;2023-03-19T13:26:30;16.50;99.90
7720;DHT22;3902;49.474;8.616;2023-03-19T13:29:00;16.40;99.90
7720;DHT22;3902;49.474;8.616;2023-03-19T13:31:28;16.40;99.90
7720;DHT22;3902;49.474;8.616;2023-03-19T13:34:06;16.30;99.90
7720;DHT22;3902;49.474;8.616;2023-03-19T13:36:41;16.40;99.90
7720;DHT22;3902;49.474;8.616;2023-03-19T13:39:15;16.30;99.90
7720;DHT22;3902;49.474;8.616;2023-03-19T13:46:55;16.20;99.90
7720;DHT22;3902;49.474;8.616;2023-03-19T13:49:33;16.20;99.90
7720;DHT22;3902;49.474;8.616;2023-03-19T13:54:52;16.20;99.90
7720;DHT22;3902;49.474;8.616;2023-03-19T13:57:19;16.30;99.90
7720;DHT22;3902;49.474;8.616;2023-03-19T13:59:48;16.30;99.90
7720;DHT22;3902;49.474;8.616;2023-03-19T14:07:38;16.20;99.90
7720;DHT22;3902;49.474;8.616;2023-03-19T14:12:45;16.20;99.90
7720;DHT22;3902;49.474;8.616;2023-03-19T14:15:23;16.20;99.90
7720;DHT22;3902;49.474;8.616;2023-03-19T14:17:54;16.20;99.90
7720;DHT22;3902;49.474;8.616;2023-03-19T14:20:58;16.20;99.90
7720;DHT22;3902;49.474;8.616;2023-03-19T14:23:26;16.30;99.90
7720;DHT22;3902;49.474;8.616;2023-03-19T14:28:48;16.40;99.90
7720;DHT22;3902;49.474;8.616;2023-03-19T14:31:40;16.50;99.90
7720;DHT22;3902;49.474;8.616;2023-03-19T14:34:21;16.60;99.90
7720;DHT22;3902;49.474;8.616;2023-03-19T14:37:15;16.70;99.90
7720;DHT22;3902;49.474;8.616;2023-03-19T14:39:44;16.80;99.90
7720;DHT22;3902;49.474;8.616;2023-03-19T14:53:38;17.40;99.90
7720;DHT22;3902;49.474;8.616;2023-03-19T14:56:12;17.80;99.90
7720;DHT22;3902;49.474;8.616;2023-03-19T14:58:47;18.20;99.90
7720;DHT22;3902;49.474;8.616;2023-03-19T15:01:13;18.60;99.90
7720;DHT22;3902;49.474;8.616;2023-03-19T15:03:38;19.00;99.90
7720;DHT22;3902;49.474;8.616;2023-03-19T15:06:06;19.20;99.90
7720;DHT22;3902;49.474;8.616;2023-03-19T15:08:36;19.30;99.90
7720;DHT22;3902;49.474;8.616;2023-03-19T15:14:01;19.20;99.90
7720;DHT22;3902;49.474;8.616;2023-03-19T15:16:59;19.00;99.90
7720;DHT22;3902;49.474;8.616;2023-03-19T15:19:29;18.80;99.90
7720;DHT22;3902;49.474;8.616;2023-03-19T15:22:13;18.60;99.90
7720;DHT22;3902;49.474;8.616;2023-03-19T15:24:40;18.30;99.90
7720;DHT22;3902;49.474;8.616;2023-03-19T15:29:41;18.20;99.90
7720;DHT22;3902;49.474;8.616;2023-03-19T15:32:07;18.20;99.90
7720;DHT22;3902;49.474;8.616;2023-03-19T15:34:34;18.20;99.90
7720;DHT22;3902;49.474;8.616;2023-03-19T15:37:10;18.30;99.90
7720;DHT22;3902;49.474;8.616;2023-03-19T15:39:46;18.50;99.90
7720;DHT22;3902;49.474;8.616;2023-03-19T15:42:14;18.80;99.90
7720;DHT22;3902;49.474;8.616;2023-03-19T15:44:48;19.00;99.90
7720;DHT22;3902;49.474;8.616;2023-03-19T15:47:35;19.20;99.90
7720;DHT22;3902;49.474;8.616;2023-03-19T15:50:11;19.30;99.90
7720;DHT22;3902;49.474;8.616;2023-03-19T15:52:40;19.40;99.90
7720;DHT22;3902;49.474;8.616;2023-03-19T15:55:06;19.50;99.90
7720;DHT22;3902;49.474;8.616;2023-03-19T15:57:34;19.70;99.90
7720;DHT22;3902;49.474;8.616;2023-03-19T16:00:00;19.80;99.90
7720;DHT22;3902;49.474;8.616;2023-03-19T16:02:31;19.70;99.90
7720;DHT22;3902;49.474;8.616;2023-03-19T16:04:58;19.60;99.90
7720;DHT22;3902;49.474;8.616;2023-03-19T16:09:57;19.40;99.90
7720;DHT22;3902;49.474;8.616;2023-03-19T16:12:38;19.20;99.90
7720;DHT22;3902;49.474;8.616;2023-03-19T16:15:24;19.10;99.90
7720;DHT22;3902;49.474;8.616;2023-03-19T16:17:52;19.00;99.90
7720;DHT22;3902;49.474;8.616;2023-03-19T16:20:18;18.80;99.90
7720;DHT22;3902;49.474;8.616;2023-03-19T16:22:52;18.70;99.90
7720;DHT22;3902;49.474;8.616;2023-03-19T16:25:18;18.50;99.90
7720;DHT22;3902;49.474;8.616;2023-03-19T16:27:45;18.30;99.90
7720;DHT22;3902;49.474;8.616;2023-03-19T16:30:19;18.20;99.90
7720;DHT22;3902;49.474;8.616;2023-03-19T16:32:59;18.00;99.90
7720;DHT22;3902;49.474;8.616;2023-03-19T16:35:27;17.90;99.90
7720;DHT22;3902;49.474;8.616;2023-03-19T16:38:17;17.80;99.90
7720;DHT22;3902;49.474;8.616;2023-03-19T16:40:48;17.60;99.90
7720;DHT22;3902;49.474;8.616;2023-03-19T16:43:20;17.50;99.90
7720;DHT22;3902;49.474;8.616;2023-03-19T16:45:51;17.50;99.90
7720;DHT22;3902;49.474;8.616;2023-03-19T16:48:27;17.40;99.90
7720;DHT22;3902;49.474;8.616;2023-03-19T16:50:53;17.20;99.90
7720;DHT22;3902;49.474;8.616;2023-03-19T16:53:27;17.10;99.90
7720;DHT22;3902;49.474;8.616;2023-03-19T16:55:55;17.10;99.90
7720;DHT22;3902;49.474;8.616;2023-03-19T16:58:32;17.00;99.90
7720;DHT22;3902;49.474;8.616;2023-03-19T17:00:59;16.90;99.90
7720;DHT22;3902;49.474;8.616;2023-03-19T17:03:26;16.80;99.90
7720;DHT22;3902;49.474;8.616;2023-03-19T17:05:54;16.80;99.90
7720;DHT22;3902;49.474;8.616;2023-03-19T17:08:20;16.70;99.90
7720;DHT22;3902;49.474;8.616;2023-03-19T17:10:49;16.70;99.90
7720;DHT22;3902;49.474;8.616;2023-03-19T17:13:19;16.60;99.90
7720;DHT22;3902;49.474;8.616;2023-03-19T17:15:46;16.60;99.90
7720;DHT22;3902;49.474;8.616;2023-03-19T17:18:23;16.50;99.90
7720;DHT22;3902;49.474;8.616;2023-03-19T17:20:59;16.40;99.90
7720;DHT22;3902;49.474;8.616;2023-03-19T17:23:27;16.40;99.90
7720;DHT22;3902;49.474;8.616;2023-03-19T17:25:55;16.40;99.90
7720;DHT22;3902;49.474;8.616;2023-03-19T17:28:22;16.30;99.90
7720;DHT22;3902;49.474;8.616;2023-03-19T17:30:48;16.20;99.90
7720;DHT22;3902;49.474;8.616;2023-03-19T17:33:24;16.20;99.90
7720;DHT22;3902;49.474;8.616;2023-03-19T17:35:51;16.00;99.90
7720;DHT22;3902;49.474;8.616;2023-03-19T17:38:18;15.80;99.90
7720;DHT22;3902;49.474;8.616;2023-03-19T17:40:44;15.70;99.90
7720;DHT22;3902;49.474;8.616;2023-03-19T17:43:11;15.50;99.90
7720;DHT22;3902;49.474;8.616;2023-03-19T17:45:38;15.40;99.90
7720;DHT22;3902;49.474;8.616;2023-03-19T17:48:05;15.30;99.90
7720;DHT22;3902;49.474;8.616;2023-03-19T17:50:31;15.20;99.90
7720;DHT22;3902;49.474;8.616;2023-03-19T17:52:58;15.00;99.90
7720;DHT22;3902;49.474;8.616;2023-03-19T17:55:28;15.00;99.90
7720;DHT22;3902;49.474;8.616;2023-03-19T17:57:54;15.00;99.90
7720;DHT22;3902;49.474;8.616;2023-03-19T18:00:21;15.00;99.90